Time;durP1;ratioP1;P1;durP2;ratioP2;P2;SDS_P1;SDS_P2;PMS_P1;PMS_P2;Temp;Humidity;BMP_temperature;BMP_pressure;BME280_temperature;BME280_humidity;BME280_pressure;Samples;Min_cycle;Max_cycle;Signal;HPM_P1;HPM_P2
2024/02/10 08:19:25;;;;;;;23.88;12.93;;;;;;;6.85;100.00;93882.03;2083906;28;20563;-67
2024/02/10 11:01:29;;;;;;;19.95;11.23;;;;;;;8.66;100.00;93804.91;2083441;28;20577;-68
2024/02/10 11:05:20;;;;;;;16.55;10.82;;;;;;;8.70;100.00;93785.47;2092761;27;20558;-67
2024/02/10 11:08:55;;;;;;;17.40;10.65;;;;;;;8.77;100.00;93778.81;2083357;28;20561;-67
2024/02/10 11:09:56;;;;;;;16.65;10.13;;;;;;;8.62;100.00;93782.66;2086016;28;20200;-67
2024/02/10 11:13:35;;;;;;;19.58;10.80;;;;;;;8.72;100.00;93754.13;2097270;27;20560;-68
2024/02/10 11:17:41;;;;;;;17.95;10.70;;;;;;;9.08;100.00;93747.63;2083822;27;20538;-69
2024/02/10 11:22:42;;;;;;;19.35;11.32;;;;;;;9.28;100.00;93739.88;2084204;28;20577;-69
2024/02/10 11:28:01;;;;;;;17.00;10.43;;;;;;;9.16;100.00;93718.31;2100892;27;20554;-68
2024/02/10 11:33:25;;;;;;;15.30;9.23;;;;;;;8.92;100.00;93724.66;2100331;27;20552;-67
2024/02/10 11:38:34;;;;;;;14.70;9.40;;;;;;;9.10;100.00;93706.66;2082238;28;20568;-67
2024/02/10 11:43:14;;;;;;;14.55;9.50;;;;;;;9.18;100.00;93708.59;2102965;27;20549;-68
2024/02/10 11:47:54;;;;;;;15.32;10.05;;;;;;;8.96;100.00;93733.03;2108584;27;21148;-67
2024/02/10 11:52:36;;;;;;;16.73;8.80;;;;;;;8.82;100.00;93710.78;2090476;28;20577;-68
2024/02/10 11:56:53;;;;;;;13.30;8.43;;;;;;;9.13;100.00;93726.41;2083071;28;20547;-66
2024/02/10 12:01:02;;;;;;;16.80;7.53;;;;;;;9.43;100.00;93722.09;2084540;28;20559;-66
2024/02/10 12:05:15;;;;;;;17.38;9.13;;;;;;;9.48;99.54;93717.31;2090264;27;20561;-67
2024/02/10 12:09:25;;;;;;;18.55;9.88;;;;;;;9.43;100.00;93717.72;2083331;28;20560;-69
2024/02/10 12:10:27;;;;;;;20.38;11.05;;;;;;;9.39;100.00;93720.72;2080551;28;20849;-69
2024/02/10 12:14:13;;;;;;;15.48;9.77;;;;;;;9.39;100.00;93734.56;2084829;27;20561;-68
2024/02/10 12:15:15;;;;;;;15.75;9.38;;;;;;;9.44;100.00;93721.97;2082105;28;20653;-68
2024/02/10 12:19:08;;;;;;;15.52;9.27;;;;;;;9.82;100.00;93718.78;2073983;27;20570;-66
2024/02/10 12:20:12;;;;;;;13.10;8.43;;;;;;;9.67;100.00;93718.31;2066961;28;20222;-69
2024/02/10 12:24:52;;;;;;;16.73;9.57;;;;;;;9.94;100.00;93715.06;2084867;27;20576;-67
2024/02/10 12:28:57;;;;;;;21.00;9.82;;;;;;;9.53;98.78;93725.56;2084791;28;20566;-66
2024/02/10 12:33:10;;;;;;;17.50;9.15;;;;;;;9.43;98.24;93720.34;2091776;28;20598;-67
2024/02/10 12:37:27;;;;;;;12.82;8.35;;;;;;;9.56;100.00;93714.03;2083044;27;20552;-65
2024/02/10 12:41:38;;;;;;;19.42;9.90;;;;;;;9.93;99.95;93703.81;2089542;28;20575;-66
2024/02/10 12:42:43;;;;;;;18.23;9.90;;;;;;;9.96;99.18;93698.31;2083899;28;20214;-66
2024/02/10 12:46:13;;;;;;;18.08;10.18;;;;;;;10.12;98.14;93694.38;2103281;27;20548;-65
2024/02/10 12:47:15;;;;;;;21.67;9.98;;;;;;;10.18;98.08;93691.19;2097748;28;20195;-66
2024/02/10 12:48:17;;;;;;;14.77;9.30;;;;;;;10.28;98.06;93696.41;2097468;28;20191;-66
2024/02/10 12:49:20;;;;;;;13.68;8.75;;;;;;;10.29;98.32;93698.84;2085008;28;20280;-66
2024/02/10 12:50:22;;;;;;;20.55;12.20;;;;;;;10.35;98.38;93696.66;2089479;28;20269;-66
2024/02/10 12:51:32;;;;;;;22.85;12.82;;;;;;;10.21;97.21;93696.13;2087031;28;20200;-66
2024/02/10 12:52:38;;;;;;;15.70;9.98;;;;;;;10.37;97.90;93702.59;2090781;28;20781;-66
2024/02/10 12:53:39;;;;;;;17.27;10.77;;;;;;;10.38;95.35;93693.81;2088032;28;20711;-66
2024/02/10 12:54:41;;;;;;;14.05;9.20;;;;;;;10.00;96.37;93700.66;2089973;28;20206;-66
2024/02/10 12:55:44;;;;;;;16.35;10.88;;;;;;;10.25;97.42;93701.91;2091339;28;20302;-66
2024/02/10 12:56:46;;;;;;;14.95;9.70;;;;;;;10.55;96.38;93700.09;2088181;28;20265;-67
2024/02/10 12:57:48;;;;;;;16.15;10.38;;;;;;;10.73;95.48;93695.00;2088899;28;20652;-66
2024/02/10 12:58:50;;;;;;;19.92;10.38;;;;;;;10.60;94.93;93695.28;2092120;28;20643;-66
2024/02/10 12:59:55;;;;;;;14.98;9.02;;;;;;;10.26;95.69;93696.53;2088405;28;20204;-66
2024/02/10 13:00:57;;;;;;;16.85;10.05;;;;;;;10.27;95.56;93703.41;2087487;28;20283;-65
2024/02/10 13:03:41;;;;;;;18.27;11.13;;;;;;;10.33;96.21;93686.38;2098177;27;20923;-68
2024/02/10 13:04:45;;;;;;;16.85;9.55;;;;;;;10.20;97.08;93686.66;2083719;28;20225;-68
2024/02/10 13:05:47;;;;;;;20.15;10.25;;;;;;;10.51;96.57;93683.06;2088444;28;20195;-68
2024/02/10 13:06:50;;;;;;;19.60;10.10;;;;;;;10.67;96.39;93678.09;2090469;28;20200;-68
2024/02/10 13:07:53;;;;;;;15.25;9.73;;;;;;;10.70;95.49;93663.94;2090904;28;20227;-68
2024/02/10 13:08:55;;;;;;;15.35;9.15;;;;;;;10.94;94.90;93682.56;2082875;28;20313;-67
2024/02/10 13:09:56;;;;;;;20.45;9.57;;;;;;;10.99;95.13;93673.47;2081106;28;20224;-67
2024/02/10 13:10:59;;;;;;;18.17;9.95;;;;;;;11.17;94.85;93671.72;2083220;28;20205;-67
2024/02/10 13:12:01;;;;;;;22.08;11.13;;;;;;;11.30;95.27;93666.19;2084134;28;20196;-67
2024/02/10 13:13:04;;;;;;;15.32;9.77;;;;;;;11.42;94.82;93664.19;2080781;28;20196;-67
2024/02/10 13:14:06;;;;;;;20.38;9.75;;;;;;;11.52;94.34;93656.31;2078758;28;20632;-68
2024/02/10 13:15:07;;;;;;;19.17;10.65;;;;;;;11.71;93.65;93655.34;2079670;28;20287;-67
2024/02/10 13:16:09;;;;;;;19.23;9.90;;;;;;;11.90;92.66;93647.34;2077768;28;20205;-67
2024/02/10 13:17:10;;;;;;;14.73;9.60;;;;;;;12.14;91.46;93645.13;2078430;28;20209;-67
2024/02/10 13:18:13;;;;;;;17.02;10.88;;;;;;;12.24;90.63;93654.53;2076270;28;20292;-67
2024/02/10 13:19:15;;;;;;;21.75;10.20;;;;;;;12.73;88.43;93653.22;2072518;28;20218;-67
2024/02/10 13:20:18;;;;;;;14.88;8.65;;;;;;;12.76;87.15;93647.69;2080742;28;20196;-67
2024/02/10 13:21:21;;;;;;;22.23;8.35;;;;;;;12.80;86.92;93642.94;2074601;28;20223;-67
2024/02/10 13:22:23;;;;;;;22.13;8.55;;;;;;;12.84;85.67;93636.44;2078873;28;20212;-67
2024/02/10 13:23:24;;;;;;;12.30;8.10;;;;;;;13.02;85.51;93646.84;2080211;28;20258;-67
2024/02/10 13:24:29;;;;;;;14.32;8.23;;;;;;;13.19;84.22;93643.31;2074279;28;20198;-67
2024/02/10 13:25:31;;;;;;;16.27;8.00;;;;;;;13.27;83.39;93644.31;2079417;28;20197;-67
2024/02/10 13:26:34;;;;;;;13.90;7.55;;;;;;;13.29;82.88;93635.31;2078919;28;20355;-67
2024/02/10 13:27:36;;;;;;;12.18;8.50;;;;;;;13.43;83.42;93646.19;2078457;28;20205;-67
2024/02/10 13:28:42;;;;;;;13.80;7.82;;;;;;;13.51;82.40;93646.22;2079700;28;20244;-67
2024/02/10 13:29:44;;;;;;;13.23;8.15;;;;;;;13.26;81.77;93642.69;2082276;28;20280;-67
2024/02/10 13:30:47;;;;;;;14.70;9.05;;;;;;;12.92;83.44;93640.91;2079482;28;20677;-67
2024/02/10 13:31:49;;;;;;;14.88;8.13;;;;;;;13.12;84.65;93638.88;2079547;28;20343;-68
2024/02/10 13:32:56;;;;;;;12.20;8.40;;;;;;;13.27;83.57;93644.31;2082381;28;20200;-68
2024/02/10 13:33:58;;;;;;;15.00;8.77;;;;;;;13.25;83.43;93639.22;2078548;28;20252;-68
2024/02/10 13:35:15;;;;;;;13.90;8.70;;;;;;;13.49;82.96;93622.78;2079037;28;20204;-68
2024/02/10 14:00:29;;;;;;;16.10;10.13;;;;;;;14.67;80.03;93599.88;2078772;28;20205;-68
2024/02/10 14:02:06;;;;;;;18.98;11.05;;;;;;;14.59;80.39;93598.06;2078528;28;20251;-69
2024/02/10 14:03:01;;;;;;;22.55;10.88;;;;;;;14.62;79.84;93592.47;2077119;28;20279;-68
2024/02/10 14:04:09;;;;;;;16.98;9.80;;;;;;;14.36;80.75;93595.31;2079142;28;20221;-69
2024/02/10 14:05:13;;;;;;;15.23;9.45;;;;;;;14.37;80.85;93591.69;2078292;28;20701;-69
2024/02/10 14:06:29;;;;;;;14.75;9.63;;;;;;;14.36;80.62;93596.13;2078910;28;20204;-69
2024/02/10 14:08:36;;;;;;;19.27;10.18;;;;;;;14.06;80.63;93587.13;2078953;28;20198;-73
2024/02/10 14:09:39;;;;;;;17.33;9.65;;;;;;;13.89;81.13;93591.56;2082283;28;20193;-72
2024/02/10 14:10:57;;;;;;;21.23;10.18;;;;;;;14.02;81.00;93593.69;2081460;28;20660;-72
2024/02/10 14:11:58;;;;;;;24.52;10.30;;;;;;;14.31;80.66;93584.47;2077206;28;21164;-69
2024/02/10 14:13:10;;;;;;;21.85;10.48;;;;;;;14.58;79.40;93585.13;2075552;28;20201;-69
2024/02/10 14:14:13;;;;;;;15.82;10.98;;;;;;;14.76;78.62;93579.69;2081016;28;20251;-69
2024/02/10 14:15:16;;;;;;;19.73;10.05;;;;;;;14.95;77.83;93579.28;2075298;28;20213;-70
2024/02/10 14:16:27;;;;;;;16.42;9.82;;;;;;;15.22;76.75;93577.19;2074680;28;20650;-70
2024/02/10 14:17:28;;;;;;;19.55;11.40;;;;;;;15.42;76.06;93588.09;2074923;28;20228;-70
2024/02/10 14:18:30;;;;;;;17.80;11.05;;;;;;;15.59;75.82;93582.75;2074724;28;20202;-69
2024/02/10 14:19:32;;;;;;;20.73;10.65;;;;;;;15.64;75.09;93580.41;2073765;28;20193;-70
2024/02/10 14:20:34;;;;;;;16.13;10.55;;;;;;;-145.49;100.00;55703.94;2072927;28;20232;-70
2024/02/10 14:21:38;;;;;;;22.60;10.32;;;;;;;15.48;75.18;93584.78;2074476;28;20201;-70
2024/02/10 14:22:40;;;;;;;20.05;10.75;;;;;;;15.52;74.58;93578.16;2075587;28;20201;-70
2024/02/10 14:23:44;;;;;;;19.35;10.55;;;;;;;15.09;75.31;93583.00;2071347;28;20316;-68
2024/02/10 14:24:46;;;;;;;19.00;10.20;;;;;;;14.90;76.52;93588.66;2073419;28;20225;-71
2024/02/10 14:25:48;;;;;;;15.55;10.05;;;;;;;14.77;77.26;93576.88;2078706;28;20189;-71
2024/02/10 14:27:00;;;;;;;14.93;10.50;;;;;;;14.34;78.28;93557.91;2074099;28;20194;-71
2024/02/10 14:28:23;;;;;;;19.23;11.18;;;;;;;13.81;79.10;93581.06;2074545;28;20197;-71
2024/02/10 14:29:36;;;;;;;21.10;10.30;;;;;;;13.68;80.55;93581.53;2070125;28;20232;-70
2024/02/10 14:30:39;;;;;;;17.65;10.13;;;;;;;13.67;80.96;93578.09;2070071;28;20875;-70
2024/02/10 14:31:50;;;;;;;15.35;10.13;;;;;;;13.53;81.06;93576.09;2072192;28;20206;-69
2024/02/10 14:32:53;;;;;;;21.95;10.85;;;;;;;13.31;82.15;93572.28;2065466;28;20198;-70
2024/02/10 14:33:54;;;;;;;21.25;11.38;;;;;;;13.18;82.38;93572.72;2063469;28;20218;-69
2024/02/10 14:35:08;;;;;;;17.80;10.70;;;;;;;12.98;83.26;93580.84;2071882;28;20237;-70
2024/02/10 14:36:27;;;;;;;15.88;11.45;;;;;;;12.76;84.31;93584.84;2067993;28;20205;-70
2024/02/10 14:37:41;;;;;;;19.95;10.77;;;;;;;12.73;83.92;93585.16;2066511;28;20546;-69
2024/02/10 14:39:59;;;;;;;23.45;12.05;;;;;;;12.11;86.40;93587.88;2075067;28;20204;-62
2024/02/10 14:41:04;;;;;;;20.20;12.25;;;;;;;12.17;86.58;93571.59;2066996;28;20198;-63
2024/02/10 14:42:05;;;;;;;17.70;11.40;;;;;;;12.26;86.33;93578.50;2067841;28;20289;-62
2024/02/10 14:43:07;;;;;;;15.82;10.25;;;;;;;12.23;86.40;93574.41;2064382;28;20210;-62
2024/02/10 14:44:10;;;;;;;18.67;10.95;;;;;;;12.29;86.21;93580.84;2072876;28;20323;-63
2024/02/10 14:45:18;;;;;;;22.13;10.88;;;;;;;12.17;86.75;93572.41;2076899;28;20592;-62
2024/02/10 14:46:20;;;;;;;19.65;10.65;;;;;;;11.94;86.87;93577.28;2074944;28;20289;-63
2024/02/10 14:47:24;;;;;;;19.08;11.05;;;;;;;12.02;87.67;93576.53;2073785;28;20577;-63
2024/02/10 14:48:28;;;;;;;19.63;10.95;;;;;;;11.97;87.57;93577.00;2073644;28;20237;-62
2024/02/10 14:49:31;;;;;;;25.70;11.15;;;;;;;11.97;87.71;93570.94;2075745;28;20241;-62
2024/02/10 14:50:32;;;;;;;20.00;11.10;;;;;;;11.84;87.97;93569.50;2075810;28;20283;-62
2024/02/10 14:51:35;;;;;;;19.98;12.00;;;;;;;11.92;88.04;93573.97;2074385;28;20201;-62
2024/02/10 14:52:41;;;;;;;20.40;12.20;;;;;;;11.77;88.88;93558.03;2076835;28;20202;-63
2024/02/10 14:53:43;;;;;;;31.13;12.52;;;;;;;11.68;89.14;93574.59;2071743;28;20252;-62
2024/02/10 14:54:45;;;;;;;22.95;12.70;;;;;;;11.72;89.76;93570.75;2072701;28;20198;-62
2024/02/10 14:55:46;;;;;;;21.02;13.45;;;;;;;11.67;89.77;93565.94;2074731;28;20251;-62
2024/02/10 14:56:48;;;;;;;24.85;13.85;;;;;;;11.67;90.35;93575.56;2075298;28;20285;-62
2024/02/10 14:57:50;;;;;;;21.15;12.20;;;;;;;11.68;90.10;93566.75;2074053;28;20909;-62
2024/02/10 14:58:52;;;;;;;24.90;13.45;;;;;;;11.55;90.26;93570.59;2073192;28;20312;-62
2024/02/10 14:59:53;;;;;;;22.20;12.50;;;;;;;11.45;90.70;93572.44;2073722;28;20193;-62
2024/02/10 15:00:56;;;;;;;24.80;12.68;;;;;;;11.53;90.84;93572.53;2075187;28;20875;-62
2024/02/10 15:01:58;;;;;;;21.55;11.80;;;;;;;11.53;90.30;93577.75;2067326;28;20197;-62
2024/02/10 15:03:00;;;;;;;23.42;13.25;;;;;;;11.49;90.30;93567.72;2065666;28;20238;-63
2024/02/10 15:04:05;;;;;;;22.27;10.95;;;;;;;11.48;90.17;93564.31;2076446;28;20317;-62
2024/02/10 15:05:11;;;;;;;20.05;11.10;;;;;;;11.41;90.30;93555.41;2069034;28;20631;-62
2024/02/10 15:06:23;;;;;;;18.60;11.25;;;;;;;11.40;90.75;93559.00;2069321;28;20897;-62
2024/02/10 15:07:25;;;;;;;21.05;11.10;;;;;;;11.33;90.59;93558.78;2073265;28;20197;-62
2024/02/10 15:08:26;;;;;;;21.55;10.70;;;;;;;11.31;90.47;93562.50;2073824;28;20198;-62
2024/02/10 15:09:28;;;;;;;18.90;9.80;;;;;;;10.98;90.73;93556.94;2072622;28;21004;-62
2024/02/10 15:10:29;;;;;;;25.73;10.60;;;;;;;11.02;91.31;93564.34;2072307;28;20201;-62
2024/02/10 15:11:31;;;;;;;19.48;11.50;;;;;;;11.04;91.19;93561.59;2073268;28;20244;-62
2024/02/10 15:12:32;;;;;;;25.05;10.60;;;;;;;11.04;91.66;93567.63;2072047;28;20203;-62
2024/02/10 15:13:34;;;;;;;16.92;9.65;;;;;;;10.83;92.54;93547.00;2071340;28;20194;-62
2024/02/10 15:14:35;;;;;;;15.80;10.25;;;;;;;10.90;92.74;93555.88;2071537;28;20210;-62
2024/02/10 15:15:43;;;;;;;19.23;10.95;;;;;;;10.82;92.74;93557.56;2070751;28;20216;-63
2024/02/10 15:16:44;;;;;;;18.13;9.68;;;;;;;10.61;93.10;93548.19;2069230;28;20285;-64
2024/02/10 15:17:47;;;;;;;25.35;9.73;;;;;;;10.60;93.35;93555.22;2078591;28;20201;-62
2024/02/10 15:18:52;;;;;;;20.00;11.32;;;;;;;10.63;93.67;93561.94;2071389;28;20629;-62
2024/02/10 15:19:55;;;;;;;27.98;10.80;;;;;;;10.50;93.78;93549.22;2064964;28;20285;-62
2024/02/10 15:20:56;;;;;;;17.27;10.60;;;;;;;10.47;93.91;93544.28;2072964;28;20197;-61
2024/02/10 15:21:58;;;;;;;18.42;10.07;;;;;;;10.47;94.23;93557.31;2070266;28;20194;-62
2024/02/10 15:23:00;;;;;;;23.17;9.77;;;;;;;10.45;94.75;93557.47;2070361;28;20207;-61
2024/02/10 15:24:09;;;;;;;15.05;9.68;;;;;;;10.44;94.71;93557.63;2068561;28;20851;-61
2024/02/10 15:25:13;;;;;;;19.92;10.00;;;;;;;10.42;95.13;93546.50;2071446;28;20210;-61
2024/02/10 15:26:16;;;;;;;15.82;9.65;;;;;;;10.40;95.05;93554.47;2067273;28;20288;-61
2024/02/10 15:27:24;;;;;;;19.88;10.80;;;;;;;10.13;94.85;93547.38;2071617;28;20295;-61
2024/02/10 15:28:28;;;;;;;19.35;10.55;;;;;;;9.89;97.01;93553.03;2070719;28;20848;-61
2024/02/10 15:29:30;;;;;;;18.15;9.70;;;;;;;9.91;96.96;93546.72;2073825;28;20243;-61
2024/02/10 15:30:31;;;;;;;15.35;10.30;;;;;;;10.07;96.44;93548.75;2074394;28;20247;-61
2024/02/10 15:47:39;;;;;;;21.25;11.10;;;;;;;9.20;100.00;93554.88;2083502;28;20566;-59
